Terminal Aerodrome Forecast
Issued by NWS Blacksburg, VA

Home | Current Version | Previous Version | Text Only | Print | Product List | Glossary On
Versions: 1 2 3 4 5 6 7 8 9 10 11 12 13 14
000
FTUS41 KRNK 202322
TAFLYH
TAF
KLYH 202322Z 2100/2124 19004KT P6SM SCT250
     FM211200 21006KT P6SM SCT250
     FM212000 20009G19KT P6SM SCT035 BKN250
     FM212300 20006KT P6SM BKN025=

USA.gov is the U.S. government's official web portal to all federal, state and local government web resources and services.